Time;durP1;ratioP1;P1;durP2;ratioP2;P2;SDS_P1;SDS_P2;PMS_P1;PMS_P2;Temp;Humidity;BMP_temperature;BMP_pressure;BME280_temperature;BME280_humidity;BME280_pressure;Samples;Min_cycle;Max_cycle;Signal;HPM_P1;HPM_P2
2022/03/19 00:00:19;;;;;;;11.75;10.02;;;22.90;35.70;;;;;;5039880;28;20122;-49
2022/03/19 00:02:45;;;;;;;11.68;10.55;;;22.90;35.60;;;;;;5030875;28;20039;-47
2022/03/19 00:05:11;;;;;;;11.13;9.95;;;22.90;35.70;;;;;;5046091;28;20036;-48
2022/03/19 00:07:40;;;;;;;11.27;9.90;;;22.90;35.70;;;;;;5045442;28;20437;-48
2022/03/19 00:10:08;;;;;;;10.73;9.32;;;22.90;35.60;;;;;;5025762;28;20021;-47
2022/03/19 00:12:40;;;;;;;10.68;9.25;;;22.90;35.60;;;;;;5026080;28;20493;-49
2022/03/19 00:15:07;;;;;;;10.75;9.23;;;22.90;35.60;;;;;;5042369;28;20036;-48
2022/03/19 00:17:33;;;;;;;10.45;9.35;;;22.90;35.50;;;;;;5045813;28;20017;-48
2022/03/19 00:19:59;;;;;;;10.75;9.65;;;22.80;35.80;;;;;;5044912;28;20596;-48
2022/03/19 00:22:25;;;;;;;10.98;9.88;;;22.80;35.40;;;;;;5045809;28;20164;-48
2022/03/19 00:24:51;;;;;;;10.35;9.27;;;22.80;35.50;;;;;;5045448;28;20033;-47
2022/03/19 00:27:17;;;;;;;10.75;9.55;;;22.80;35.40;;;;;;5045691;28;20036;-48
2022/03/19 00:29:42;;;;;;;10.45;9.32;;;22.80;35.30;;;;;;5043927;28;20033;-48
2022/03/19 00:32:08;;;;;;;11.38;9.90;;;22.80;35.40;;;;;;5025599;28;20167;-47
2022/03/19 00:34:34;;;;;;;10.65;9.52;;;22.80;35.30;;;;;;5044844;28;20719;-47
2022/03/19 00:37:00;;;;;;;10.07;9.07;;;22.80;35.30;;;;;;5045390;28;20583;-46
2022/03/19 00:39:25;;;;;;;10.38;9.27;;;22.80;35.20;;;;;;5045478;28;20221;-47
2022/03/19 00:41:54;;;;;;;10.35;9.27;;;22.80;35.30;;;;;;5045043;28;20096;-47
2022/03/19 00:44:21;;;;;;;9.85;8.85;;;22.80;35.20;;;;;;5045275;28;20080;-47
2022/03/19 00:46:48;;;;;;;11.00;9.90;;;22.80;35.20;;;;;;5045276;28;20037;-49
2022/03/19 00:49:13;;;;;;;9.85;8.80;;;22.80;35.10;;;;;;5044509;28;20033;-48
2022/03/19 00:51:40;;;;;;;11.05;9.95;;;22.80;35.10;;;;;;5045057;28;20032;-48
2022/03/19 00:54:07;;;;;;;10.00;8.95;;;22.70;35.10;;;;;;5045237;28;20048;-47
2022/03/19 00:56:33;;;;;;;10.23;9.13;;;22.70;35.10;;;;;;5045553;28;20033;-48
2022/03/19 00:59:00;;;;;;;12.68;9.35;;;22.70;35.10;;;;;;5027629;28;20025;-49
2022/03/19 01:01:26;;;;;;;10.05;9.05;;;22.70;35.10;;;;;;5025191;28;20021;-48
2022/03/19 01:03:52;;;;;;;10.23;8.95;;;22.70;35.10;;;;;;5025104;28;20545;-48
2022/03/19 01:06:18;;;;;;;10.50;9.43;;;22.70;35.10;;;;;;5024857;28;20120;-47
2022/03/19 01:08:43;;;;;;;10.15;8.95;;;22.70;35.10;;;;;;5024385;28;20113;-48
2022/03/19 01:11:09;;;;;;;10.23;8.75;;;22.70;35.00;;;;;;5024694;28;20029;-49
2022/03/19 01:13:35;;;;;;;9.75;8.75;;;22.60;35.00;;;;;;5029131;28;20055;-48
2022/03/19 01:16:02;;;;;;;10.25;9.23;;;22.60;35.00;;;;;;5044496;28;20548;-47
2022/03/19 01:18:29;;;;;;;9.80;8.80;;;22.60;35.00;;;;;;5044730;28;20057;-47
2022/03/19 01:20:55;;;;;;;9.35;8.45;;;22.60;35.00;;;;;;5044426;28;20071;-47
2022/03/19 01:23:21;;;;;;;10.38;9.30;;;22.60;35.00;;;;;;5044726;28;21005;-47
2022/03/19 01:25:46;;;;;;;9.82;8.82;;;22.60;34.90;;;;;;5043834;28;20064;-47
2022/03/19 01:28:12;;;;;;;9.50;8.50;;;22.60;34.90;;;;;;5044467;28;20067;-48
2022/03/19 01:30:38;;;;;;;10.30;9.13;;;22.60;34.90;;;;;;5035548;28;20716;-48
2022/03/19 01:33:04;;;;;;;9.75;8.75;;;22.60;35.00;;;;;;5024494;28;20061;-47
2022/03/19 01:35:30;;;;;;;9.88;8.88;;;22.60;35.00;;;;;;5024122;28;20093;-48
2022/03/19 01:37:56;;;;;;;9.95;8.95;;;22.60;35.00;;;;;;5024365;28;20041;-48
2022/03/19 01:40:22;;;;;;;9.18;8.25;;;22.60;34.90;;;;;;5022980;28;20032;-47
2022/03/19 01:42:50;;;;;;;9.60;8.60;;;22.60;34.90;;;;;;5024291;28;20033;-47
2022/03/19 01:45:22;;;;;;;10.43;9.32;;;22.60;34.90;;;;;;5024475;28;20030;-49
2022/03/19 01:47:48;;;;;;;9.63;8.68;;;22.60;34.80;;;;;;5027394;28;20029;-52
2022/03/19 01:50:16;;;;;;;10.40;9.30;;;22.60;34.80;;;;;;5044237;28;20116;-48
2022/03/19 01:52:42;;;;;;;8.90;8.00;;;22.60;34.70;;;;;;5044347;28;20679;-48
2022/03/19 01:55:09;;;;;;;9.20;8.07;;;22.50;34.70;;;;;;5044200;28;20036;-47
2022/03/19 01:57:38;;;;;;;9.77;8.77;;;22.50;34.70;;;;;;5042722;28;20568;-47
2022/03/19 02:00:09;;;;;;;9.23;8.27;;;22.50;34.70;;;;;;5040064;28;20033;-48
2022/03/19 02:02:36;;;;;;;9.20;8.30;;;22.50;34.70;;;;;;5023969;28;20647;-48
2022/03/19 02:05:03;;;;;;;9.68;8.77;;;22.50;34.60;;;;;;5024263;28;20065;-48
2022/03/19 02:07:30;;;;;;;9.05;8.15;;;22.50;34.60;;;;;;5028246;28;20103;-48
2022/03/19 02:10:00;;;;;;;10.35;8.70;;;22.50;34.50;;;;;;5028063;28;20037;-47
2022/03/19 02:12:26;;;;;;;9.20;8.30;;;22.50;34.50;;;;;;5028344;28;20060;-48
2022/03/19 02:14:52;;;;;;;8.13;7.32;;;22.50;34.50;;;;;;5043386;28;20037;-48
2022/03/19 02:17:23;;;;;;;9.85;8.45;;;22.40;34.40;;;;;;5047790;28;20029;-48
2022/03/19 02:19:54;;;;;;;9.15;8.20;;;22.50;34.50;;;;;;5028096;28;20030;-47
2022/03/19 02:22:22;;;;;;;9.00;8.10;;;22.40;34.40;;;;;;5028071;28;20502;-48
2022/03/19 02:27:34;;;;;;;8.55;7.68;;;22.40;34.50;;;;;;5028016;28;20101;-48
2022/03/19 02:30:00;;;;;;;9.55;8.55;;;22.40;34.40;;;;;;5026270;28;20033;-48
2022/03/19 02:32:27;;;;;;;9.45;8.45;;;22.40;34.40;;;;;;5027473;28;20145;-49
2022/03/19 02:34:54;;;;;;;8.68;7.78;;;22.40;34.40;;;;;;5045964;28;20037;-47
2022/03/19 02:37:20;;;;;;;8.38;7.53;;;22.40;34.40;;;;;;5038382;28;20025;-49
2022/03/19 02:39:46;;;;;;;8.80;7.90;;;22.40;34.40;;;;;;5027486;28;20075;-47
2022/03/19 02:42:19;;;;;;;8.77;7.88;;;22.40;34.40;;;;;;5026587;28;20033;-48
2022/03/19 02:44:45;;;;;;;9.10;8.20;;;22.40;34.40;;;;;;5027870;28;20030;-48
2022/03/19 02:47:11;;;;;;;8.27;7.47;;;22.40;34.40;;;;;;5027792;28;20026;-47
2022/03/19 02:49:37;;;;;;;9.85;8.48;;;22.40;34.40;;;;;;5044291;28;20083;-47
2022/03/19 02:52:03;;;;;;;8.68;7.80;;;22.40;34.40;;;;;;5047813;28;20029;-48
2022/03/19 02:54:30;;;;;;;8.20;7.32;;;22.40;34.40;;;;;;5047588;28;20037;-47
2022/03/19 02:56:57;;;;;;;9.00;8.10;;;22.40;34.40;;;;;;5047336;28;20029;-47
2022/03/19 02:59:28;;;;;;;8.70;7.80;;;22.40;34.40;;;;;;5047096;28;20072;-48
2022/03/19 03:02:05;;;;;;;8.93;7.82;;;22.40;34.40;;;;;;5028266;28;20063;-48
2022/03/19 03:04:32;;;;;;;8.45;7.32;;;22.40;34.40;;;;;;5044016;28;20024;-47
2022/03/19 03:07:00;;;;;;;9.25;8.35;;;22.40;34.30;;;;;;5046287;28;20085;-47
2022/03/19 03:09:27;;;;;;;8.57;7.68;;;22.40;34.40;;;;;;5046599;28;20025;-48
2022/03/19 03:11:53;;;;;;;8.93;7.95;;;22.30;34.30;;;;;;5045996;28;20035;-48
2022/03/19 03:14:20;;;;;;;9.07;8.18;;;22.30;34.30;;;;;;5045203;28;20021;-48
2022/03/19 03:16:47;;;;;;;8.48;7.68;;;22.30;34.30;;;;;;5046225;28;20024;-49
2022/03/19 03:19:15;;;;;;;8.15;7.35;;;22.30;34.20;;;;;;5044613;28;20059;-48
2022/03/19 03:21:41;;;;;;;8.23;7.40;;;22.30;34.30;;;;;;5045874;28;20503;-48
2022/03/19 03:24:08;;;;;;;9.15;8.25;;;22.30;34.20;;;;;;5046054;28;20037;-47
2022/03/19 03:26:35;;;;;;;8.40;7.60;;;22.30;34.20;;;;;;5046050;28;20055;-48
2022/03/19 03:29:01;;;;;;;8.85;7.95;;;22.30;34.20;;;;;;5045656;28;20055;-46
2022/03/19 03:31:27;;;;;;;8.48;7.57;;;22.30;34.20;;;;;;5044003;28;20771;-47
2022/03/19 03:33:54;;;;;;;9.52;8.50;;;22.30;34.10;;;;;;5045364;28;20025;-48
2022/03/19 03:36:20;;;;;;;9.82;8.82;;;22.30;34.30;;;;;;5046054;28;20037;-47
2022/03/19 03:38:47;;;;;;;9.40;8.48;;;22.20;34.20;;;;;;5046081;28;20481;-47
2022/03/19 03:41:13;;;;;;;9.70;8.80;;;22.20;34.20;;;;;;5046411;28;20057;-48
2022/03/19 03:43:38;;;;;;;9.73;8.73;;;22.20;34.10;;;;;;5046433;28;20448;-48
2022/03/19 03:46:04;;;;;;;9.77;8.77;;;22.20;34.10;;;;;;5045201;28;20028;-48
2022/03/19 03:48:31;;;;;;;10.13;9.13;;;22.30;34.20;;;;;;5045213;28;20079;-48
2022/03/19 03:50:58;;;;;;;10.02;8.77;;;22.20;34.10;;;;;;5045035;28;20029;-48
2022/03/19 03:53:25;;;;;;;9.63;8.63;;;22.20;34.10;;;;;;5043873;28;20074;-48
2022/03/19 03:55:52;;;;;;;9.45;8.45;;;22.20;34.00;;;;;;5043945;28;20615;-48
2022/03/19 03:58:18;;;;;;;10.20;9.20;;;22.20;34.70;;;;;;5045339;28;20020;-48
2022/03/19 04:00:43;;;;;;;10.30;9.07;;;22.20;34.80;;;;;;5042616;28;20024;-48
2022/03/19 04:03:09;;;;;;;9.60;8.45;;;22.20;34.90;;;;;;5045529;28;20029;-49
2022/03/19 04:05:35;;;;;;;9.65;8.68;;;22.20;35.00;;;;;;5045752;28;20554;-49
2022/03/19 04:08:03;;;;;;;9.63;8.73;;;22.20;34.90;;;;;;5045997;28;20021;-50
2022/03/19 04:10:30;;;;;;;10.30;8.95;;;22.20;34.70;;;;;;5045945;28;20804;-50
2022/03/19 04:12:56;;;;;;;9.57;8.68;;;22.20;34.60;;;;;;5045398;28;20060;-50
2022/03/19 04:15:21;;;;;;;10.27;9.27;;;22.20;34.50;;;;;;5026456;28;20669;-49
2022/03/19 04:17:48;;;;;;;10.32;9.32;;;22.20;34.40;;;;;;5026037;28;20056;-50
2022/03/19 04:20:14;;;;;;;9.13;8.23;;;22.20;34.40;;;;;;5025509;28;20040;-49
2022/03/19 04:22:42;;;;;;;9.98;9.00;;;22.20;34.30;;;;;;5026054;28;20030;-50
2022/03/19 04:25:34;;;;;;;10.25;9.25;;;22.20;34.30;;;;;;5026289;28;20669;-50
2022/03/19 04:28:01;;;;;;;9.50;8.50;;;22.10;34.30;;;;;;5025393;28;20046;-49
2022/03/19 04:30:28;;;;;;;10.32;9.25;;;22.20;34.30;;;;;;5025169;28;20021;-48
2022/03/19 04:33:04;;;;;;;9.95;8.95;;;22.10;34.20;;;;;;5025434;28;20083;-47
2022/03/19 04:38:19;;;;;;;9.63;8.73;;;22.10;34.20;;;;;;5045535;28;20063;-50
2022/03/19 04:40:46;;;;;;;9.90;8.90;;;22.10;34.10;;;;;;5045401;28;20094;-48
2022/03/19 04:43:13;;;;;;;9.75;8.77;;;22.10;34.20;;;;;;5045530;28;20029;-48
2022/03/19 04:45:40;;;;;;;9.40;8.45;;;22.10;34.10;;;;;;5043989;28;20025;-50
2022/03/19 04:48:06;;;;;;;9.75;8.75;;;22.10;34.10;;;;;;5043712;28;20028;-48
2022/03/19 04:50:36;;;;;;;8.88;7.97;;;22.10;34.10;;;;;;5024782;28;20033;-48
2022/03/19 04:53:06;;;;;;;9.82;8.82;;;22.10;34.10;;;;;;5024920;28;20078;-48
2022/03/19 04:55:32;;;;;;;10.38;9.35;;;22.10;34.10;;;;;;5024909;28;20658;-48
2022/03/19 04:57:58;;;;;;;10.02;9.02;;;22.10;34.10;;;;;;5025285;28;20045;-48
2022/03/19 05:00:25;;;;;;;10.63;9.52;;;22.10;34.10;;;;;;5023851;28;20041;-47
2022/03/19 05:02:52;;;;;;;9.90;9.00;;;22.10;34.10;;;;;;5027989;28;20033;-49
2022/03/19 05:05:18;;;;;;;9.15;8.25;;;22.10;34.10;;;;;;5045246;28;20025;-48
2022/03/19 05:07:44;;;;;;;8.75;7.85;;;22.10;34.10;;;;;;5044174;28;20040;-49
2022/03/19 05:12:55;;;;;;;9.25;8.35;;;22.10;34.10;;;;;;5044816;28;20047;-50
2022/03/19 05:15:21;;;;;;;9.50;8.40;;;22.10;34.10;;;;;;5025531;28;20493;-48
2022/03/19 05:17:46;;;;;;;8.93;8.02;;;22.10;34.10;;;;;;5023632;28;20044;-50
2022/03/19 05:20:14;;;;;;;9.50;8.32;;;22.00;34.00;;;;;;5024040;28;20810;-48
2022/03/19 05:22:40;;;;;;;9.10;8.20;;;22.00;34.00;;;;;;5024409;28;20025;-48
2022/03/19 05:25:06;;;;;;;9.48;8.57;;;22.00;33.90;;;;;;5024756;28;20033;-49
2022/03/19 05:27:32;;;;;;;9.07;8.18;;;22.00;33.90;;;;;;5025002;28;20581;-49
2022/03/19 05:29:58;;;;;;;9.30;8.40;;;22.00;33.90;;;;;;5024466;28;20120;-50
2022/03/19 05:32:24;;;;;;;9.07;7.75;;;22.00;33.90;;;;;;5024465;28;20022;-50
2022/03/19 05:34:50;;;;;;;9.00;8.10;;;22.00;33.90;;;;;;5039312;28;20104;-49
2022/03/19 05:37:17;;;;;;;9.35;8.35;;;22.00;33.90;;;;;;5044468;28;20079;-49
2022/03/19 05:39:43;;;;;;;10.07;9.07;;;22.00;33.80;;;;;;5043956;28;20032;-49
2022/03/19 05:42:11;;;;;;;9.05;8.15;;;22.00;33.80;;;;;;5043890;28;20067;-49
2022/03/19 05:44:37;;;;;;;9.80;8.23;;;22.00;33.80;;;;;;5044462;28;20029;-48
2022/03/19 05:47:04;;;;;;;9.88;8.80;;;22.00;33.80;;;;;;5044168;28;20507;-48
2022/03/19 05:49:30;;;;;;;9.43;8.48;;;22.00;33.80;;;;;;5043641;28;20122;-48
2022/03/19 05:51:57;;;;;;;8.95;8.07;;;22.00;33.80;;;;;;5042691;28;20112;-49
2022/03/19 05:54:24;;;;;;;8.57;7.68;;;22.00;33.80;;;;;;5023181;28;20079;-48
2022/03/19 05:56:50;;;;;;;8.80;7.93;;;21.90;33.80;;;;;;5024021;28;20532;-48
2022/03/19 05:59:16;;;;;;;9.25;8.35;;;22.00;33.80;;;;;;5024101;28;20029;-49
2022/03/19 06:01:44;;;;;;;10.05;9.00;;;21.90;33.80;;;;;;5022473;28;20025;-48
2022/03/19 06:04:10;;;;;;;9.23;8.20;;;21.90;33.80;;;;;;5032292;28;20060;-49
2022/03/19 06:06:36;;;;;;;9.30;8.40;;;21.90;33.80;;;;;;5042723;28;20075;-48
2022/03/19 06:09:02;;;;;;;8.43;7.63;;;21.90;34.40;;;;;;5043407;28;20029;-50
2022/03/19 06:11:28;;;;;;;9.77;8.73;;;21.90;33.80;;;;;;5043899;28;20695;-49
2022/03/19 06:13:54;;;;;;;10.13;9.05;;;21.90;33.80;;;;;;5036652;28;20064;-50
2022/03/19 06:16:20;;;;;;;9.30;8.30;;;22.00;33.90;;;;;;5023773;28;20493;-49
2022/03/19 06:18:49;;;;;;;8.57;7.70;;;21.90;34.00;;;;;;5028336;28;20041;-50
2022/03/19 06:21:16;;;;;;;8.30;7.13;;;21.90;34.00;;;;;;5042581;28;20087;-49
2022/03/19 06:23:44;;;;;;;9.45;8.50;;;21.90;34.10;;;;;;5043958;28;20056;-47
2022/03/19 06:26:11;;;;;;;8.63;7.72;;;22.00;34.20;;;;;;5040440;28;20493;-48
2022/03/19 06:28:36;;;;;;;9.43;8.43;;;22.00;34.30;;;;;;5043190;28;20558;-48
2022/03/19 06:31:02;;;;;;;7.60;6.80;;;22.00;34.30;;;;;;5042359;28;20021;-48
2022/03/19 06:33:28;;;;;;;8.45;7.63;;;22.10;34.40;;;;;;5042491;28;20047;-48
2022/03/19 06:38:39;;;;;;;8.15;7.30;;;22.10;34.20;;;;;;5041794;28;20021;-48
2022/03/19 06:41:04;;;;;;;8.48;7.60;;;22.20;34.50;;;;;;5042967;28;20025;-47
2022/03/19 06:43:31;;;;;;;9.15;8.23;;;22.30;34.90;;;;;;5042622;28;20055;-48
2022/03/19 06:46:00;;;;;;;8.68;7.75;;;22.30;35.10;;;;;;5028925;28;20037;-49
2022/03/19 06:48:26;;;;;;;10.50;7.70;;;22.40;35.20;;;;;;5019205;28;20026;-48
2022/03/19 06:50:54;;;;;;;9.15;7.80;;;22.50;35.40;;;;;;5022436;28;20037;-47
2022/03/19 06:53:20;;;;;;;8.65;7.60;;;22.60;35.70;;;;;;5025449;28;20025;-49
2022/03/19 06:55:46;;;;;;;8.93;7.93;;;22.60;35.60;;;;;;5026896;28;20196;-49
2022/03/19 06:58:12;;;;;;;8.70;7.32;;;22.70;35.60;;;;;;5026403;28;20657;-47
2022/03/19 07:00:40;;;;;;;8.43;7.28;;;22.80;35.50;;;;;;5026273;28;20073;-48
2022/03/19 07:03:06;;;;;;;8.00;7.20;;;22.80;35.40;;;;;;5025634;28;20152;-49
2022/03/19 07:05:32;;;;;;;8.32;7.53;;;22.90;35.30;;;;;;5045961;28;20037;-48
2022/03/19 07:07:59;;;;;;;8.60;7.57;;;23.00;35.10;;;;;;5029960;28;20111;-48
2022/03/19 07:10:25;;;;;;;8.38;7.00;;;23.00;34.90;;;;;;5027492;28;20058;-49
2022/03/19 07:12:55;;;;;;;8.10;7.15;;;23.10;35.00;;;;;;5025625;28;20018;-49
2022/03/19 07:15:29;;;;;;;8.75;6.93;;;23.10;35.00;;;;;;5037992;28;20433;-49
2022/03/19 07:17:56;;;;;;;8.18;7.32;;;23.20;35.10;;;;;;5025962;28;20079;-48
2022/03/19 07:20:22;;;;;;;8.32;7.47;;;23.20;35.20;;;;;;5026058;28;20026;-49
2022/03/19 07:22:51;;;;;;;7.55;6.72;;;23.20;35.00;;;;;;5024571;28;20028;-49
2022/03/19 07:25:19;;;;;;;7.75;6.95;;;23.30;35.10;;;;;;5025163;28;20109;-49
2022/03/19 07:27:46;;;;;;;7.78;6.85;;;23.30;34.90;;;;;;5034344;28;20435;-50
2022/03/19 07:30:12;;;;;;;8.45;7.25;;;23.40;34.80;;;;;;5040355;28;20114;-49
2022/03/19 07:32:38;;;;;;;7.88;7.07;;;23.40;34.60;;;;;;5025880;28;20524;-49
2022/03/19 07:35:06;;;;;;;7.78;6.85;;;23.50;34.50;;;;;;5026939;28;20029;-48
2022/03/19 07:37:33;;;;;;;7.65;6.55;;;23.50;34.40;;;;;;5025874;28;20079;-49
2022/03/19 07:40:01;;;;;;;7.45;6.50;;;23.50;34.30;;;;;;5025595;28;20029;-49
2022/03/19 07:42:27;;;;;;;7.28;6.53;;;23.50;34.20;;;;;;5025500;28;20033;-49
2022/03/19 07:44:53;;;;;;;7.55;6.28;;;23.60;34.10;;;;;;5025536;28;20020;-50
2022/03/19 07:47:19;;;;;;;7.40;6.60;;;23.60;34.10;;;;;;5033207;28;20029;-48
2022/03/19 07:49:45;;;;;;;6.57;5.88;;;23.60;34.00;;;;;;5041298;28;20630;-48
2022/03/19 07:52:11;;;;;;;9.40;7.00;;;23.60;34.00;;;;;;5043575;28;20037;-49
2022/03/19 07:54:37;;;;;;;8.45;7.13;;;23.60;33.90;;;;;;5039549;28;20029;-49
2022/03/19 07:57:04;;;;;;;8.27;7.30;;;23.70;33.90;;;;;;5033670;28;20034;-49
2022/03/19 07:59:30;;;;;;;7.57;6.72;;;23.70;33.90;;;;;;5028085;28;20633;-47
2022/03/19 08:01:56;;;;;;;7.85;6.78;;;23.70;33.90;;;;;;5030375;28;20104;-48
2022/03/19 08:04:22;;;;;;;7.72;6.85;;;23.70;33.90;;;;;;5044665;28;20112;-47
2022/03/19 08:06:55;;;;;;;8.10;6.93;;;23.70;33.80;;;;;;5044299;28;20051;-47
2022/03/19 08:09:23;;;;;;;7.75;6.95;;;23.70;33.80;;;;;;5044290;28;20028;-49
2022/03/19 08:11:52;;;;;;;7.22;6.35;;;23.70;33.70;;;;;;5045032;28;20029;-50
2022/03/19 08:14:19;;;;;;;7.50;6.68;;;23.70;33.70;;;;;;5037836;28;20025;-48
2022/03/19 08:16:46;;;;;;;8.25;7.13;;;23.70;33.70;;;;;;5024793;28;20021;-49
2022/03/19 08:19:12;;;;;;;8.13;6.75;;;23.70;33.70;;;;;;5030688;28;20063;-50
2022/03/19 08:21:39;;;;;;;7.75;6.75;;;23.70;33.60;;;;;;5040721;28;20056;-49
2022/03/19 08:24:06;;;;;;;8.95;7.30;;;23.70;33.70;;;;;;5044374;28;20040;-49
2022/03/19 08:26:32;;;;;;;7.57;6.70;;;23.70;33.60;;;;;;5044773;28;20068;-49
2022/03/19 08:28:58;;;;;;;8.00;7.15;;;23.70;33.60;;;;;;5044046;28;20059;-48
2022/03/19 08:31:24;;;;;;;7.60;6.60;;;23.70;33.60;;;;;;5042355;28;20091;-47
2022/03/19 08:33:50;;;;;;;7.38;6.47;;;23.70;33.60;;;;;;5041709;28;20116;-49
2022/03/19 08:36:16;;;;;;;7.35;6.50;;;23.60;33.50;;;;;;5043777;28;20029;-48
2022/03/19 08:41:26;;;;;;;8.63;6.10;;;23.60;33.50;;;;;;5044310;28;20541;-48
2022/03/19 08:43:52;;;;;;;9.38;7.05;;;23.60;33.80;;;;;;5044204;28;20048;-49
2022/03/19 08:46:19;;;;;;;9.57;7.43;;;23.60;34.60;;;;;;5044452;28;20104;-48
2022/03/19 08:48:45;;;;;;;8.68;7.38;;;23.60;34.10;;;;;;5041801;28;20037;-48
2022/03/19 08:51:39;;;;;;;8.00;6.93;;;23.60;34.10;;;;;;5022007;28;20029;-50
2022/03/19 08:53:59;;;;;;;7.60;6.30;;;23.60;34.20;;;;;;5023850;28;20029;-48
2022/03/19 08:56:25;;;;;;;8.35;7.18;;;23.60;34.20;;;;;;5024514;28;20032;-48
2022/03/19 08:58:51;;;;;;;8.30;6.45;;;23.60;34.20;;;;;;5023263;28;20075;-48
2022/03/19 09:01:17;;;;;;;6.45;5.75;;;23.70;34.30;;;;;;5024249;28;20117;-48
2022/03/19 09:03:43;;;;;;;7.32;6.53;;;23.70;34.30;;;;;;5023202;28;20037;-47
2022/03/19 09:06:14;;;;;;;7.75;6.35;;;23.70;34.30;;;;;;5024868;28;20539;-48
2022/03/19 09:08:40;;;;;;;7.70;6.00;;;23.70;34.20;;;;;;5024035;28;20029;-49
2022/03/19 09:11:06;;;;;;;7.50;5.97;;;23.70;34.20;;;;;;5023768;28;20036;-49
2022/03/19 09:13:32;;;;;;;6.43;5.70;;;23.70;34.20;;;;;;5022459;28;20014;-47
2022/03/19 09:15:58;;;;;;;7.68;6.25;;;23.80;34.20;;;;;;5022292;28;20080;-49
2022/03/19 09:18:25;;;;;;;8.55;6.22;;;23.70;34.10;;;;;;5032282;28;20649;-49
2022/03/19 09:20:51;;;;;;;8.05;6.47;;;23.70;34.00;;;;;;5042839;28;20033;-48
2022/03/19 09:23:16;;;;;;;8.25;6.93;;;23.80;33.90;;;;;;5039252;28;20527;-49
2022/03/19 09:25:42;;;;;;;8.18;6.28;;;23.80;33.90;;;;;;5023814;28;20017;-48
2022/03/19 09:28:08;;;;;;;8.10;7.00;;;23.80;33.90;;;;;;5022195;28;20052;-49
2022/03/19 09:30:34;;;;;;;7.22;6.32;;;23.80;33.90;;;;;;5035144;28;20124;-47
2022/03/19 09:33:00;;;;;;;7.97;7.03;;;23.80;33.90;;;;;;5042586;28;20101;-48
2022/03/19 09:35:26;;;;;;;8.18;6.97;;;23.80;33.90;;;;;;5041684;28;20028;-48
2022/03/19 09:37:52;;;;;;;7.90;6.53;;;23.80;33.90;;;;;;5037100;28;20037;-48
2022/03/19 09:40:18;;;;;;;7.43;6.10;;;23.80;33.90;;;;;;5042240;28;20017;-48
2022/03/19 09:42:49;;;;;;;8.20;6.43;;;23.80;33.90;;;;;;5042913;28;20117;-49
2022/03/19 09:45:18;;;;;;;8.50;7.13;;;23.80;33.90;;;;;;5043499;28;20108;-48
2022/03/19 09:47:44;;;;;;;7.38;6.30;;;23.80;33.90;;;;;;5043496;28;20032;-48
2022/03/19 09:50:10;;;;;;;8.20;6.82;;;23.80;33.90;;;;;;5030654;28;20029;-47
2022/03/19 09:52:36;;;;;;;8.70;7.30;;;23.70;33.80;;;;;;5023494;28;20068;-49
2022/03/19 09:55:04;;;;;;;6.63;5.57;;;23.80;33.80;;;;;;5023290;28;20032;-47
2022/03/19 09:57:30;;;;;;;7.18;6.28;;;23.70;33.90;;;;;;5023007;28;20091;-49
2022/03/19 09:59:55;;;;;;;7.65;5.93;;;23.70;33.90;;;;;;5022202;28;20033;-49
2022/03/19 10:02:21;;;;;;;7.00;6.07;;;23.70;33.80;;;;;;5021624;28;20106;-48
2022/03/19 10:04:52;;;;;;;7.43;6.18;;;23.80;33.80;;;;;;5038160;28;20063;-49
2022/03/19 10:10:08;;;;;;;7.75;5.97;;;23.70;33.90;;;;;;5043179;28;20112;-51
2022/03/19 10:12:33;;;;;;;7.68;6.35;;;23.70;33.90;;;;;;5033958;28;20083;-49
2022/03/19 10:15:00;;;;;;;7.70;5.95;;;23.70;33.90;;;;;;5023186;28;20034;-48
2022/03/19 10:17:28;;;;;;;7.43;6.60;;;23.70;33.90;;;;;;5023268;28;20024;-48
2022/03/19 10:19:59;;;;;;;8.40;6.40;;;23.70;33.90;;;;;;5032181;28;20120;-49
2022/03/19 10:22:29;;;;;;;7.05;5.85;;;23.70;33.90;;;;;;5038190;28;20104;-49
2022/03/19 10:25:01;;;;;;;8.57;6.25;;;23.70;33.90;;;;;;5032278;28;20102;-49
2022/03/19 10:27:35;;;;;;;7.78;5.97;;;23.70;34.00;;;;;;5044945;28;20040;-47
2022/03/19 10:30:21;;;;;;;8.13;5.57;;;23.60;33.90;;;;;;5042043;28;20021;-49
2022/03/19 10:32:49;;;;;;;7.00;5.57;;;23.60;34.00;;;;;;5030409;28;20067;-49
2022/03/19 10:35:35;;;;;;;8.48;5.85;;;23.60;34.10;;;;;;5042883;28;20036;-49
2022/03/19 10:38:05;;;;;;;6.97;5.78;;;23.60;34.10;;;;;;5035329;28;20084;-48
2022/03/19 10:40:39;;;;;;;7.28;6.13;;;23.60;34.10;;;;;;5032356;28;20048;-48
2022/03/19 10:43:06;;;;;;;7.28;5.88;;;23.60;34.10;;;;;;5042741;28;20030;-49
2022/03/19 10:45:32;;;;;;;7.78;6.10;;;23.60;34.10;;;;;;5044198;28;20561;-48
2022/03/19 10:48:02;;;;;;;6.28;5.10;;;23.60;34.10;;;;;;5041755;28;20033;-49
2022/03/19 10:50:27;;;;;;;7.10;5.43;;;23.60;34.10;;;;;;5036651;28;20238;-47
2022/03/19 10:52:54;;;;;;;6.28;5.18;;;23.60;34.10;;;;;;5039016;28;20023;-48
2022/03/19 10:55:21;;;;;;;7.15;5.50;;;23.60;34.00;;;;;;5046978;28;20021;-48
2022/03/19 10:57:46;;;;;;;7.05;5.88;;;23.60;34.00;;;;;;5047415;28;20477;-48
2022/03/19 11:00:14;;;;;;;7.30;5.57;;;23.70;34.10;;;;;;5041401;28;20060;-48
2022/03/19 11:02:45;;;;;;;7.30;5.65;;;23.70;34.10;;;;;;5026699;28;20493;-49
2022/03/19 11:05:12;;;;;;;6.90;5.53;;;23.70;34.00;;;;;;5038098;28;20155;-49
2022/03/19 11:07:43;;;;;;;6.93;5.50;;;23.70;34.10;;;;;;5046681;28;20040;-48
2022/03/19 11:10:11;;;;;;;7.63;5.25;;;23.70;34.00;;;;;;5042934;28;20029;-48
2022/03/19 11:12:42;;;;;;;7.28;5.38;;;23.70;34.00;;;;;;5046282;28;20481;-48
2022/03/19 11:15:10;;;;;;;7.05;6.35;;;23.70;34.10;;;;;;5044983;28;20079;-49
2022/03/19 11:17:45;;;;;;;6.68;5.88;;;23.70;34.20;;;;;;5046468;28;20075;-48
2022/03/19 11:20:12;;;;;;;6.82;5.30;;;23.70;34.20;;;;;;5044926;28;20397;-48
2022/03/19 11:22:46;;;;;;;7.15;5.30;;;23.70;34.20;;;;;;5045126;28;20029;-49
2022/03/19 11:25:21;;;;;;;7.05;5.25;;;23.70;34.20;;;;;;5045521;28;20017;-47
2022/03/19 11:27:49;;;;;;;7.22;5.75;;;23.70;34.20;;;;;;5046360;28;20036;-47
2022/03/19 11:30:19;;;;;;;7.97;6.40;;;23.80;34.20;;;;;;5040556;28;20112;-49
2022/03/19 11:33:09;;;;;;;7.97;6.97;;;23.80;34.30;;;;;;5045638;28;20532;-49
2022/03/19 11:35:38;;;;;;;10.13;8.32;;;23.80;34.70;;;;;;5045151;28;20032;-48
2022/03/19 11:38:16;;;;;;;10.63;7.93;;;23.80;36.00;;;;;;5045966;28;20086;-49
2022/03/19 11:40:45;;;;;;;8.88;6.13;;;23.80;35.60;;;;;;5046097;28;20025;-47
2022/03/19 11:43:16;;;;;;;8.35;6.18;;;23.80;35.40;;;;;;5035067;28;20108;-48
2022/03/19 11:46:05;;;;;;;8.85;6.13;;;23.90;35.20;;;;;;5026734;28;20473;-48
2022/03/19 11:48:45;;;;;;;8.23;6.53;;;23.90;34.90;;;;;;5026231;28;20029;-48
2022/03/19 11:51:34;;;;;;;8.10;5.55;;;23.90;34.50;;;;;;5025868;28;20029;-48
2022/03/19 11:54:03;;;;;;;7.10;5.63;;;23.90;34.30;;;;;;5026374;28;20087;-49
2022/03/19 11:56:48;;;;;;;7.57;5.82;;;23.90;34.20;;;;;;5029001;28;20022;-48
2022/03/19 11:59:23;;;;;;;8.75;6.45;;;23.90;34.20;;;;;;5038819;28;20033;-49
2022/03/19 12:02:01;;;;;;;8.60;6.68;;;23.90;34.10;;;;;;5038889;28;20456;-49
2022/03/19 12:04:57;;;;;;;7.57;6.07;;;23.90;34.10;;;;;;5045032;28;20526;-48
2022/03/19 12:07:45;;;;;;;6.57;5.13;;;23.90;34.10;;;;;;5031466;28;20094;-47
2022/03/19 12:10:16;;;;;;;8.63;5.47;;;23.90;34.00;;;;;;5043166;28;20032;-48
2022/03/19 12:12:43;;;;;;;7.50;4.88;;;23.90;34.50;;;;;;5022491;28;20029;-48
2022/03/19 12:15:33;;;;;;;8.48;5.20;;;24.00;34.70;;;;;;5036703;28;20508;-48
2022/03/19 12:18:25;;;;;;;6.75;4.97;;;24.00;34.80;;;;;;5032061;28;20075;-49
2022/03/19 12:20:54;;;;;;;7.20;4.38;;;24.00;34.90;;;;;;5028655;28;20545;-48
2022/03/19 12:23:20;;;;;;;7.85;5.40;;;24.00;34.80;;;;;;5044441;28;20165;-47
2022/03/19 12:25:58;;;;;;;7.95;6.13;;;24.00;34.70;;;;;;5044496;28;20028;-48
2022/03/19 12:28:24;;;;;;;7.32;4.82;;;24.00;34.60;;;;;;5045071;28;20071;-47
2022/03/19 12:30:50;;;;;;;7.00;5.32;;;24.10;34.60;;;;;;5034901;28;20029;-48
2022/03/19 12:33:16;;;;;;;7.10;5.25;;;24.10;34.70;;;;;;5024995;28;20030;-47
2022/03/19 12:35:43;;;;;;;7.88;5.07;;;24.10;34.60;;;;;;5038495;28;20025;-48
2022/03/19 12:38:09;;;;;;;8.35;5.25;;;24.10;34.60;;;;;;5032878;28;20108;-47
2022/03/19 12:43:22;;;;;;;7.75;4.68;;;24.20;34.40;;;;;;5025231;28;20521;-47
2022/03/19 12:45:49;;;;;;;8.63;5.00;;;24.20;34.30;;;;;;5024465;28;20036;-49
2022/03/19 12:48:21;;;;;;;7.13;4.30;;;24.20;34.20;;;;;;5023970;28;20045;-48
2022/03/19 12:50:51;;;;;;;7.85;4.55;;;24.20;34.30;;;;;;5036118;28;20061;-49
2022/03/19 12:53:35;;;;;;;7.15;4.97;;;24.30;34.20;;;;;;5040709;28;20036;-47
2022/03/19 12:56:16;;;;;;;8.93;4.88;;;24.30;34.20;;;;;;5042734;28;20033;-49
2022/03/19 12:58:45;;;;;;;6.68;4.78;;;24.30;34.20;;;;;;5041744;28;20029;-48
2022/03/19 13:01:15;;;;;;;7.28;5.05;;;24.30;34.20;;;;;;5041838;28;20657;-48
2022/03/19 13:03:42;;;;;;;9.45;6.10;;;24.40;33.90;;;;;;5042868;28;20041;-49
2022/03/19 13:06:08;;;;;;;6.70;5.53;;;24.40;33.50;;;;;;5034761;28;20044;-49
2022/03/19 13:08:50;;;;;;;9.18;6.90;;;24.40;33.40;;;;;;5033267;28;20038;-48